Rafael Lopez

Recruteur en chef - Santa Fe
19 Août 2027
Jeudi
Processus

Personnalité

Adaptabilité (9) Ambition (7) Controverse (1) Loyauté (17) Pression (10) Professionnalisme (11) Sportivité (4) Tempérament (5)

Profil

Style d'entraînement Démocratique
Diplôme National B
Détermination 10
Gestion des joueurs 4
Motivation 4
Discipline 11
Satisfaction professionnelle
100%
Fatigue
0%
Rôle Recruteur en chef
Salaire 94.1K p/s
Contrat 14.03.2028

Performance

Comportement Bon
Efficacité de l'entraînement
46%
Développement des joueurs
55%
Prévention des blessures
30%
Mise en place tactique
45%

Événements récents

A participé à une réunion de recrutement maintenant
A participé à une réunion de recrutement maintenant
A recommandé une cible de transfert maintenant
A recommandé une cible de transfert maintenant
A recommandé une cible de transfert maintenant
A participé à une réunion de recrutement maintenant
A participé à une réunion de recrutement 7j
A participé à une réunion de recrutement 7j

Suivi en cours

210
Joueur Club Statut Capacité Confiance Observé Dernière observation Dernier vote
José Luis Caicedo Barranquilla Actif 139 / 124 48% 1 28.06.2027 -
Samuel Lucero Defensa y Justicia Négociation 114 / 110 40% 1 14.06.2027 Plus d'infos
Jofre Torrents Ajax Actif 138 / 143 40% 3 07.06.2027 -
Mfundo Vilakazi Kaizer Chiefs Actif 114 / 111 40% 6 07.06.2027 -
David Valencia Alianza Petrolera Actif 114 / 145 40% 1 04.06.2027 -
Andrés Amaya Fortaleza CEIF Actif 116 / 107 48% 1 01.06.2027 -
Christos Mouzakitis Hull City Actif 130 / 121 40% 9 30.05.2027 -
Ernie Weaver AFC Wimbledon Actif 90 / 119 40% 5 29.05.2027 Observer
Freddy Murillo Valencia Actif 108 / 101 40% 2 29.05.2027 -
Gilberto Mora Atlético Madrid Actif 119 / 157 40% 1 29.05.2027 -
Daniel Vernattus Metalist Actif 75 / 94 40% 2 28.05.2027 -
Jesús Rodríguez Como Actif 129 / 134 40% 2 26.05.2027 -
Amaury Morales Pumas UNAM Actif 108 / 110 40% 1 25.05.2027 -
Lander Astiazarán Real Sociedad Actif 108 / 101 40% 5 24.05.2027 -
Jaydee Canvot Crystal Palace Actif 137 / 157 40% 2 22.05.2027 -
Sascha Britschgi Padova Actif 105 / 109 40% 1 22.05.2027 -
Percy Jali Free State Stars Actif 96 / 101 40% 3 19.05.2027 -
Jan Bürger Gillingham Actif 127 / 111 40% 1 19.05.2027 -
Kamarni Ryan Burton Albion Actif 78 / 116 40% 1 18.05.2027 -
Thulani Erasmus Platinum Stars Actif 98 / 107 40% 4 16.05.2027 -
Christ Inao Oulaï Fiorentina Actif 149 / 146 40% 1 16.05.2027 -
Lynden Edhart Cambuur Actif 115 / 124 40% 1 16.05.2027 -
Ibrahim Maza Bayer Leverkusen Actif 163 / 155 40% 5 15.05.2027 -
Rayan Bournemouth Actif 146 / 154 40% 1 15.05.2027 -
Leandro Martins Benfica Actif 84 / 113 40% 1 14.05.2027 -
Joel McGregor Swindon Town Actif 85 / 101 40% 2 13.05.2027 -
Juan Giménez Celta Actif 102 / 131 40% 1 13.05.2027 -
Josh King Chelsea Actif 137 / 132 40% 4 11.05.2027 -
Shea Lacey Wolverhampton Actif 117 / 123 40% 4 11.05.2027 -
Samuele di Benedetto Bari Actif 111 / 113 40% 1 11.05.2027 -
Davide Bartesaghi AC Milan Actif 127 / 129 40% 1 09.05.2027 -
Gonçalo Oliveira Benfica Actif 108 / 116 40% 1 08.05.2027 -
Monty Batlhabane Polokwane City Actif 107 / 96 40% 2 05.05.2027 -
Jayden Addai Como Actif 128 / 118 40% 2 05.05.2027 -
Othmane Maamma Watford Actif 143 / 118 40% 3 30.04.2027 -
Ben Gannon Doak Bournemouth Actif 158 / 150 40% 1 30.04.2027 -
Riley Owen Trento Actif 95 / 114 40% 2 29.04.2027 -
Yussif Saidu Zaragoza Actif 105 / 112 40% 6 27.04.2027 -
Matías Gómez Granada Actif 123 / 126 40% 3 27.04.2027 -
Leo Castledine Middlesbrough Actif 116 / 140 40% 3 26.04.2027 -
Kutlwano Letlhaku Ajax Cape Town Actif 107 / 109 40% 2 25.04.2027 -
Cyriaque Irié VfL Wolfsburg Actif 130 / 122 40% 2 22.04.2027 -
Rodrigo Mora AS Roma Actif 145 / 142 40% 2 20.04.2027 -
David Ozoh Derby County Actif 138 / 109 40% 2 15.04.2027 -
André Miranda Porto Actif 104 / 86 40% 1 13.04.2027 -
Ronwen Phiri Platinum Stars Actif 106 / 117 40% 1 12.04.2027 -
Ethan Williams Peterborough United Actif 100 / 110 40% 2 10.04.2027 -
Daniel Awuni Aduana Stars Actif 93 / 83 40% 1 06.04.2027 -
Kazunari Kita Real Sociedad Actif 83 / 95 40% 1 06.04.2027 -
Adam Bakoune Ospitaletto Actif 100 / 117 40% 1 06.04.2027 -
James Dornelly Peterborough United Actif 117 / 94 40% 3 05.04.2027 -
Jan Virgili Club Brugge Actif 139 / 138 40% 1 02.04.2027 -
Calum Agius Crewe Alexandra Actif 88 / 114 40% 1 01.04.2027 -
Hazeem Bakre Crawley Town Actif 99 / 85 40% 1 31.03.2027 -
Zack Nelson Bromley Actif 119 / 112 40% 1 28.03.2027 -
Rocco Vata Watford Actif 105 / 122 40% 1 26.03.2027 -
Araphat Mohammed Berekum Chelsea Actif 91 / 111 40% 1 22.03.2027 -
Ruan Alanyaspor Actif 140 / 133 40% 1 19.03.2027 -
Oscar Schwartau Norwich City Actif 111 / 149 40% 2 17.03.2027 -
Antoni Milambo Brentford Actif 151 / 142 40% 1 13.03.2027 -
Mamadou Diakhon Club Brugge Actif 99 / 111 40% 1 11.03.2027 -
Jayden Luker Barnet Actif 91 / 100 40% 1 07.03.2027 -
Afonso Assis Moreirense Actif 108 / 105 40% 1 25.02.2027 -
Israel Reyes CSKA Moscow Actif 139 / 136 40% 2 23.02.2027 -
Nadir Zortea Bologna Actif 149 / 142 40% 2 23.02.2027 -
Juanlu Bournemouth Actif 137 / 136 40% 2 22.02.2027 -
Zak Swanson Bradford City Actif 110 / 104 40% 1 22.02.2027 -
Bosun Lawal Stoke City Actif 132 / 127 40% 1 16.02.2027 -
Ronnie Edwards Queens Park Rangers Actif 114 / 141 40% 1 16.02.2027 -
Leif Davis Ipswich Town Actif 148 / 125 40% 1 15.02.2027 -
Matisse Samoise KAA Gent Actif 113 / 140 40% 1 14.02.2027 -
Jacques Ekomié Wrexham Actif 120 / 119 40% 2 13.02.2027 -
Josh Tymon Swansea City Actif 119 / 129 40% 3 12.02.2027 -
Alessandro Buongiorno Sassuolo Actif 141 / 162 40% 1 10.02.2027 -
Christian Krasnodar Actif 138 / 129 40% 5 09.02.2027 -
Robert-Jan Vanwesemael Sint-Truiden Actif 136 / 102 40% 1 09.02.2027 -
Luke McNally Bristol City Actif 116 / 122 40% 1 08.02.2027 -
Jordan Beyer Burnley Actif 131 / 145 40% 1 08.02.2027 -
Nicolás Fernández Mercau Shakhtar Actif 132 / 131 40% 1 06.02.2027 -
Milan van Ewijk Mansfield Town Actif 148 / 139 40% 1 02.02.2027 -
Teden Mengi Luton Town Actif 114 / 128 40% 2 01.02.2027 -
Kellen Fisher Norwich City Actif 109 / 111 40% 1 31.01.2027 -
Mandla Erasmus SuperSport United Actif 129 / 131 40% 1 31.01.2027 -
Lucas Da Cunha Como Actif 147 / 130 40% 1 28.01.2027 -
Juan Mosquera Sheffield Wednesday Actif 136 / 129 40% 1 25.01.2027 -
Max Bird Birmingham Actif 117 / 113 40% 1 24.01.2027 -
Toby Collyer West Bromwich Albion Actif 151 / 118 40% 1 20.01.2027 -
Bali Mumba Huddersfield Town Actif 106 / 121 40% 2 19.01.2027 -
Di'Shon Bernard Sheffield Wednesday Actif 118 / 118 40% 1 18.01.2027 -
Japhet Tanganga Sheffield United Actif 127 / 122 40% 1 15.01.2027 -
Francisco Álvarez Argentinos Juniors Actif 112 / 121 40% 1 13.01.2027 -
Joaquín García Vélez Actif 120 / 132 40% 2 10.01.2027 -
Nobel Mendy Hull City Actif 136 / 123 40% 1 09.01.2027 -
Facundo Mansilla Central Córdoba SdE Actif 105 / 124 40% 1 06.01.2027 -
Tomás Ribeiro Cultural Leonesa Actif 137 / 125 40% 1 06.01.2027 -
Williams Manyama SuperSport United Actif 125 / 129 40% 2 04.01.2027 -
Pelle Mattsson Norwich City Actif 126 / 104 40% 1 02.01.2027 -
Franco Ibarra Rosario Central Actif 120 / 123 40% 2 01.01.2027 -
Nicolas Madsen Queens Park Rangers Actif 133 / 110 40% 1 01.01.2027 -
Nazareno Colombo Racing Club Actif 139 / 135 40% 1 29.12.2026 Plus d'infos
Victor Parada Spartak Moscow Actif 146 / 138 40% 1 29.12.2026 -
Alex Vigo Independiente Rivadavia Actif 110 / 119 40% 1 28.12.2026 Plus d'infos
Santiago González Tigre Actif 122 / 125 40% 1 22.12.2026 -
Oli McBurnie Hull City Actif 119 / 118 40% 2 16.12.2026 -
Nicolò Tresoldi Club Brugge Actif 133 / 130 40% 2 15.12.2026 -
Patson Daka Leicester City Actif 137 / 119 40% 1 15.12.2026 -
Will Lankshear Middlesbrough Actif 134 / 121 40% 1 14.12.2026 -
Enzo Avaro Odd Actif 124 / 120 40% 1 03.12.2026 -
Konstantin Tyukavin Inter Négociation 132 / 133 66% 1 01.12.2026 Approuver
Toni Fruk KV Mechelen Négociation 132 / 133 66% 1 01.12.2026 Approuver
Marcel Ruiz RC Lens Négociation 140 / 141 66% 1 01.12.2026 Approuver
Ruben van Bommel Ferencvaros Actif 138 / 142 40% 1 30.11.2026 -
Tomás Silva Platense Actif 135 / 115 40% 1 28.11.2026 -
Tiago Palacios Estudiantes Actif 120 / 129 40% 2 27.11.2026 -
Rubén Duarte Legia Actif 145 / 144 40% 1 27.11.2026 -
Gastón Lodico Racing Club Actif 120 / 129 40% 2 26.11.2026 -
Joaquín Gho Argentinos Juniors Actif 115 / 131 40% 2 26.11.2026 -
Juan Infante Atlético Tucumán Actif 123 / 121 40% 4 25.11.2026 -
Alan Lescano Argentinos Juniors Actif 124 / 120 40% 3 24.11.2026 -
Franco Zapiola Platense Actif 127 / 126 40% 1 24.11.2026 -
Rodrigo Echeverría Leon Actif 141 / 120 40% 5 22.11.2026 -
Bryan González Guadalajara Actif 137 / 117 40% 1 22.11.2026 -
Jesús Ricardo Angulo Toluca Actif 147 / 122 40% 2 21.11.2026 Plus d'infos
Cristian Calderón Pumas UNAM Actif 113 / 117 40% 2 20.11.2026 -
Marcelo Estigarribia Unión de Santa Fe Actif 121 / 126 40% 3 20.11.2026 -
Jesús Angulo Tigres Actif 125 / 152 40% 5 18.11.2026 -
Oussama Idrissi Pachuca Actif 155 / 137 40% 9 18.11.2026 -
Nicolás Sumavil Platense Actif 129 / 122 40% 1 18.11.2026 -
Brian Gutiérrez Guadalajara Actif 107 / 120 40% 3 16.11.2026 -
Alejandro Zendejas Club America Actif 125 / 158 40% 4 13.11.2026 -
Bamba Dieng Crvena Zvezda Actif 131 / 108 40% 1 12.11.2026 -
César Ibáñez Huracán Actif 132 / 117 40% 1 08.11.2026 -
Agustín Palavecino Cruz Azul Actif 142 / 122 40% 6 07.11.2026 -
Orbelín Pineda Monterrey Actif 124 / 139 40% 2 05.11.2026 -
Hany Mukhtar Spezia Actif 146 / 146 40% 1 05.11.2026 -
Carlos Gruezo Santos Laguna Actif 130 / 106 40% 2 03.11.2026 -
Juninho Pumas UNAM Actif 135 / 112 40% 3 03.11.2026 -
Gastón Fernández Chacarita Juniors Actif 97 / 97 40% 1 03.11.2026 -
Erick Reyes Toluca Actif 140 / 155 40% 2 02.11.2026 -
Michael Cooper Sheffield United Actif 128 / 112 40% 1 02.11.2026 -
Ramiro Ruiz Rodríguez Atlético Tucumán Actif 130 / 109 40% 2 01.11.2026 -
Iker Benito Queretaro Actif 105 / 143 40% 2 30.10.2026 -
Fernando Valenzuela Queretaro Actif 115 / 117 40% 2 30.10.2026 -
Jamie Cumming Oxford United Actif 99 / 109 40% 1 30.10.2026 -
Luís Esteves Atlas Actif 138 / 119 40% 1 28.10.2026 -
Marcelino Moreno Lanús Actif 129 / 139 40% 2 27.10.2026 -
Francisco González Metilli Belgrano Actif 113 / 137 40% 2 24.10.2026 -
Jhonatan Candia Barracas Central Actif 135 / 117 40% 2 23.10.2026 -
Matías Cóccaro Newell's Old Boys Actif 116 / 114 40% 1 23.10.2026 -
Wessam Abou Ali Columbus Crew Actif 123 / 139 40% 1 23.10.2026 -
Rômulo Tigres Actif 105 / 115 40% 2 21.10.2026 -
Facundo Cambeses Racing Club Actif 136 / 123 40% 2 21.10.2026 -
Agustín Lastra Estudiantes Actif 101 / 98 40% 1 21.10.2026 -
Joaquín Bigo Tristán Suárez Actif 117 / 95 40% 2 18.10.2026 -
Diego Rossi Monterrey Actif 117 / 129 40% 2 14.10.2026 -
Joaquim Tigres Actif 118 / 146 40% 1 14.10.2026 -
Santiago Núñez Estudiantes Actif 112 / 137 40% 1 14.10.2026 -
Ezequiel Bullaude Santos Laguna Actif 109 / 112 40% 1 14.10.2026 -
Lautaro Petruchi Gimnasia y Esgrima Actif 128 / 125 40% 1 13.10.2026 -
Agustín Buffa Wanderers Actif 110 / 90 40% 1 13.10.2026 -
Jordi Cortizo Leon Actif 104 / 144 40% 1 09.10.2026 -
Efraín Álvarez Guadalajara Actif 142 / 140 40% 1 07.10.2026 -
Matías Reali San Lorenzo Actif 131 / 123 40% 1 06.10.2026 -
Luis Ingolotti Atlético Tucumán Actif 111 / 115 40% 1 04.10.2026 -
Mauro Casoli Talleres Actif 109 / 103 40% 1 04.10.2026 -
Pedro Vite Pumas UNAM Actif 116 / 110 40% 1 04.10.2026 -
Adnan Courtois KV Oostende Actif 137 / 123 40% 1 03.10.2026 -
Tomás O'Connor Gimnasia y Esgrima Actif 108 / 137 40% 1 03.10.2026 -
Facundo Zabala Independiente Actif 129 / 135 40% 1 29.09.2026 -
Richard Martinez Veracruz Actif 142 / 132 40% 1 27.09.2026 -
Joaquín Silva Plaza Colonia Actif 111 / 102 40% 1 25.09.2026 -
Juan Pablo Domínguez Leon Actif 118 / 131 40% 2 23.09.2026 -
Ulises Ortegoza Talleres Actif 109 / 110 40% 1 23.09.2026 -
Nicolás Castro Toluca Actif 108 / 123 40% 1 22.09.2026 -
Jaminton Campaz Rosario Central Actif 111 / 126 40% 1 19.09.2026 -
Omar Carabalí Shonan Bellmare Actif 130 / 102 40% 1 19.09.2026 -
Santiago Silva CFR Cluj Actif 99 / 138 40% 1 19.09.2026 -
Antony Alonso Deportivo Riestra Actif 113 / 120 40% 1 18.09.2026 -
Rafael Navarro St. Louis CITY SC Actif 148 / 123 40% 1 18.09.2026 -
Carlos Moreno Pachuca Actif 120 / 126 40% 1 16.09.2026 -
Iván Rodríguez Leon Actif 145 / 120 40% 1 15.09.2026 -
Manuel Ospina Cortulua Actif 132 / 113 40% 1 11.09.2026 Plus d'infos
Kein Sato FC Tokyo Actif 117 / 138 40% 1 11.09.2026 -
Richard Ledezma Guadalajara Actif 122 / 125 40% 3 09.09.2026 -
Adalberto Carrasquilla Pumas UNAM Actif 105 / 129 40% 1 09.09.2026 -
Dayne St. Clair Inter Miami CF Actif 107 / 116 40% 1 09.09.2026 -
Kenedy Pachuca Actif 133 / 120 40% 1 07.09.2026 -
Tomás Ahumada Audax Italiano Actif 106 / 109 40% 1 07.09.2026 -
César Huerta Pumas UNAM Actif 120 / 120 40% 1 04.09.2026 -
Renato Solís Sporting Cristal Actif 112 / 130 40% 1 03.09.2026 -
Bradley Mabunda SuperSport United Actif 96 / 94 40% 1 02.09.2026 -
Nicolás Fonseca Leon Actif 102 / 128 40% 2 31.08.2026 -
Matt Freese New York City Actif 123 / 128 40% 1 30.08.2026 -
Ángel González Libertad Actif 108 / 99 40% 1 29.08.2026 -
Matías Dufour Sportivo Trinidense Actif 116 / 96 40% 1 28.08.2026 -
Franco Cristaldo Talleres Actif 138 / 129 40% 1 24.08.2026 -
Jeremy Márquez Cruz Azul Actif 112 / 140 40% 1 23.08.2026 -
Lautaro Amadé Defensa y Justicia Actif 105 / 111 40% 3 22.08.2026 -
Beycker Velásquez Zamora Actif 105 / 89 40% 2 21.08.2026 -
Justo Giani Universidad Catolica Actif 113 / 110 40% 1 18.08.2026 -
Víctor Guzmán Toluca Actif 142 / 115 40% 1 14.08.2026 -
Salvador Reyes Leon Actif 100 / 142 40% 1 12.08.2026 -
Enzo Giménez Queretaro Actif 144 / 124 40% 1 09.08.2026 -
César Araújo Tigres Actif 118 / 110 40% 1 09.08.2026 -
Víctor Dávila Club America Actif 104 / 137 40% 1 07.08.2026 -
Ramiro Sordo Santos Laguna Actif 124 / 131 40% 1 06.08.2026 -
Matías Fernández Colo-Colo Actif 122 / 115 40% 1 06.08.2026 -
Luis Romo Guadalajara Actif 115 / 141 40% 1 05.08.2026 -
Federico Viñas Toluca Actif 126 / 132 40% 1 01.08.2026 -
Christian Ebere Cruz Azul Actif 99 / 106 40% 1 01.08.2026 -